sensor_id;sensor_type;location;lat;lon;timestamp;pressure;altitude;pressure_sealevel;temperature
70668;BMP280;58242;51.250;-1.118;2023-02-15T00:01:22;101265.09;;;11.75
70668;BMP280;58242;51.250;-1.118;2023-02-15T00:03:48;101264.94;;;11.80
70668;BMP280;58242;51.250;-1.118;2023-02-15T00:06:13;101255.53;;;11.82
70668;BMP280;58242;51.250;-1.118;2023-02-15T00:08:38;101252.25;;;11.85
70668;BMP280;58242;51.250;-1.118;2023-02-15T00:11:08;101261.56;;;11.88
70668;BMP280;58242;51.250;-1.118;2023-02-15T00:13:33;101253.50;;;11.88
70668;BMP280;58242;51.250;-1.118;2023-02-15T00:16:01;101249.28;;;11.87
70668;BMP280;58242;51.250;-1.118;2023-02-15T00:18:26;101239.63;;;11.86
70668;BMP280;58242;51.250;-1.118;2023-02-15T00:20:51;101244.50;;;11.84
70668;BMP280;58242;51.250;-1.118;2023-02-15T00:23:17;101252.53;;;11.84
70668;BMP280;58242;51.250;-1.118;2023-02-15T00:25:42;101242.13;;;11.82
70668;BMP280;58242;51.250;-1.118;2023-02-15T00:31:10;101237.06;;;11.81
70668;BMP280;58242;51.250;-1.118;2023-02-15T00:33:36;101233.59;;;11.80
70668;BMP280;58242;51.250;-1.118;2023-02-15T00:36:01;101236.28;;;11.80
70668;BMP280;58242;51.250;-1.118;2023-02-15T00:38:27;101226.69;;;11.80
70668;BMP280;58242;51.250;-1.118;2023-02-15T00:40:53;101229.66;;;11.78
70668;BMP280;58242;51.250;-1.118;2023-02-15T00:43:18;101220.00;;;11.77
70668;BMP280;58242;51.250;-1.118;2023-02-15T00:45:44;101223.31;;;11.74
70668;BMP280;58242;51.250;-1.118;2023-02-15T00:48:10;101219.38;;;11.72
70668;BMP280;58242;51.250;-1.118;2023-02-15T00:50:35;101217.25;;;11.69
70668;BMP280;58242;51.250;-1.118;2023-02-15T00:53:00;101218.66;;;11.66
70668;BMP280;58242;51.250;-1.118;2023-02-15T00:55:25;101204.00;;;11.64
70668;BMP280;58242;51.250;-1.118;2023-02-15T00:57:50;101206.97;;;11.63
70668;BMP280;58242;51.250;-1.118;2023-02-15T01:00:16;101196.56;;;11.61
70668;BMP280;58242;51.250;-1.118;2023-02-15T01:02:41;101196.88;;;11.60
70668;BMP280;58242;51.250;-1.118;2023-02-15T01:05:06;101191.81;;;11.58
70668;BMP280;58242;51.250;-1.118;2023-02-15T01:07:32;101189.47;;;11.57
70668;BMP280;58242;51.250;-1.118;2023-02-15T01:09:57;101187.88;;;11.56
70668;BMP280;58242;51.250;-1.118;2023-02-15T01:12:22;101184.69;;;11.54
70668;BMP280;58242;51.250;-1.118;2023-02-15T01:14:47;101176.19;;;11.52
70668;BMP280;58242;51.250;-1.118;2023-02-15T01:17:12;101180.72;;;11.51
70668;BMP280;58242;51.250;-1.118;2023-02-15T01:19:38;101179.94;;;11.51
70668;BMP280;58242;51.250;-1.118;2023-02-15T01:22:03;101170.81;;;11.52
70668;BMP280;58242;51.250;-1.118;2023-02-15T01:24:28;101168.44;;;11.50
70668;BMP280;58242;51.250;-1.118;2023-02-15T01:26:54;101167.97;;;11.48
70668;BMP280;58242;51.250;-1.118;2023-02-15T01:29:19;101166.06;;;11.49
70668;BMP280;58242;51.250;-1.118;2023-02-15T01:31:44;101168.75;;;11.49
70668;BMP280;58242;51.250;-1.118;2023-02-15T01:34:09;101170.63;;;11.48
70668;BMP280;58242;51.250;-1.118;2023-02-15T01:36:34;101174.91;;;11.49
70668;BMP280;58242;51.250;-1.118;2023-02-15T01:39:00;101171.44;;;11.49
70668;BMP280;58242;51.250;-1.118;2023-02-15T01:41:25;101177.25;;;11.51
70668;BMP280;58242;51.250;-1.118;2023-02-15T01:43:57;101177.75;;;11.53
70668;BMP280;58242;51.250;-1.118;2023-02-15T01:46:24;101171.28;;;11.54
70668;BMP280;58242;51.250;-1.118;2023-02-15T01:48:52;101163.44;;;11.57
70668;BMP280;58242;51.250;-1.118;2023-02-15T01:51:19;101160.19;;;11.60
70668;BMP280;58242;51.250;-1.118;2023-02-15T01:54:09;101161.94;;;11.64
70668;BMP280;58242;51.250;-1.118;2023-02-15T01:56:33;101167.16;;;11.69
70668;BMP280;58242;51.250;-1.118;2023-02-15T01:59:00;101156.94;;;11.71
70668;BMP280;58242;51.250;-1.118;2023-02-15T02:01:27;101153.66;;;11.74
70668;BMP280;58242;51.250;-1.118;2023-02-15T02:04:04;101151.44;;;11.76
70668;BMP280;58242;51.250;-1.118;2023-02-15T02:06:32;101158.41;;;11.77
70668;BMP280;58242;51.250;-1.118;2023-02-15T02:08:58;101153.03;;;11.77
70668;BMP280;58242;51.250;-1.118;2023-02-15T02:11:23;101141.53;;;11.77
70668;BMP280;58242;51.250;-1.118;2023-02-15T02:13:49;101141.53;;;11.77
70668;BMP280;58242;51.250;-1.118;2023-02-15T02:29:08;101124.81;;;11.71
70668;BMP280;58242;51.250;-1.118;2023-02-15T02:44:46;101121.34;;;11.71
70668;BMP280;58242;51.250;-1.118;2023-02-15T02:47:20;101122.13;;;11.71
70668;BMP280;58242;51.250;-1.118;2023-02-15T02:49:47;101115.19;;;11.70
70668;BMP280;58242;51.250;-1.118;2023-02-15T02:54:56;101106.66;;;11.68
70668;BMP280;58242;51.250;-1.118;2023-02-15T02:57:21;101101.63;;;11.67
70668;BMP280;58242;51.250;-1.118;2023-02-15T02:59:47;101095.63;;;11.70
70668;BMP280;58242;51.250;-1.118;2023-02-15T03:02:17;101090.28;;;11.70
70668;BMP280;58242;51.250;-1.118;2023-02-15T03:04:47;101077.69;;;11.70
70668;BMP280;58242;51.250;-1.118;2023-02-15T03:07:18;101084.91;;;11.70
70668;BMP280;58242;51.250;-1.118;2023-02-15T03:09:47;101080.06;;;11.72
70668;BMP280;58242;51.250;-1.118;2023-02-15T03:12:15;101078.16;;;11.72
70668;BMP280;58242;51.250;-1.118;2023-02-15T03:14:41;101079.75;;;11.73
70668;BMP280;58242;51.250;-1.118;2023-02-15T03:17:08;101072.19;;;11.75
70668;BMP280;58242;51.250;-1.118;2023-02-15T03:19:36;101061.16;;;11.77
70668;BMP280;58242;51.250;-1.118;2023-02-15T03:22:10;101064.34;;;11.79
70668;BMP280;58242;51.250;-1.118;2023-02-15T03:24:55;101063.25;;;11.80
70668;BMP280;58242;51.250;-1.118;2023-02-15T03:27:24;101070.50;;;11.79
70668;BMP280;58242;51.250;-1.118;2023-02-15T03:29:55;101058.97;;;11.79
70668;BMP280;58242;51.250;-1.118;2023-02-15T03:32:21;101056.31;;;11.79
70668;BMP280;58242;51.250;-1.118;2023-02-15T03:34:47;101052.03;;;11.78
70668;BMP280;58242;51.250;-1.118;2023-02-15T03:37:22;101049.34;;;11.78
70668;BMP280;58242;51.250;-1.118;2023-02-15T03:39:59;101044.78;;;11.78
70668;BMP280;58242;51.250;-1.118;2023-02-15T03:42:44;101041.31;;;11.78
70668;BMP280;58242;51.250;-1.118;2023-02-15T03:45:11;101038.94;;;11.76
70668;BMP280;58242;51.250;-1.118;2023-02-15T03:47:41;101038.94;;;11.76
70668;BMP280;58242;51.250;-1.118;2023-02-15T03:50:17;101028.22;;;11.76
70668;BMP280;58242;51.250;-1.118;2023-02-15T03:53:02;101036.25;;;11.76
70668;BMP280;58242;51.250;-1.118;2023-02-15T03:55:28;101035.16;;;11.77
70668;BMP280;58242;51.250;-1.118;2023-02-15T03:57:53;101029.00;;;11.77
70668;BMP280;58242;51.250;-1.118;2023-02-15T04:00:44;101029.81;;;11.77
70668;BMP280;58242;51.250;-1.118;2023-02-15T04:03:33;101024.44;;;11.77
70668;BMP280;58242;51.250;-1.118;2023-02-15T04:06:02;101042.41;;;11.77
70668;BMP280;58242;51.250;-1.118;2023-02-15T04:08:27;101024.78;;;11.76
70668;BMP280;58242;51.250;-1.118;2023-02-15T04:11:11;101023.19;;;11.75
70668;BMP280;58242;51.250;-1.118;2023-02-15T04:13:36;101026.16;;;11.73
70668;BMP280;58242;51.250;-1.118;2023-02-15T04:16:01;101020.34;;;11.71
70668;BMP280;58242;51.250;-1.118;2023-02-15T04:18:34;101019.84;;;11.69
70668;BMP280;58242;51.250;-1.118;2023-02-15T04:21:18;101011.34;;;11.67
70668;BMP280;58242;51.250;-1.118;2023-02-15T04:24:02;101017.31;;;11.64
70668;BMP280;58242;51.250;-1.118;2023-02-15T04:26:46;101004.50;;;11.62
70668;BMP280;58242;51.250;-1.118;2023-02-15T04:29:13;100999.78;;;11.59
70668;BMP280;58242;51.250;-1.118;2023-02-15T04:31:38;101011.91;;;11.56
70668;BMP280;58242;51.250;-1.118;2023-02-15T04:34:03;101004.16;;;11.55
70668;BMP280;58242;51.250;-1.118;2023-02-15T04:36:28;101004.78;;;11.52
70668;BMP280;58242;51.250;-1.118;2023-02-15T04:38:54;101004.28;;;11.50
70668;BMP280;58242;51.250;-1.118;2023-02-15T04:41:19;101001.16;;;11.48
70668;BMP280;58242;51.250;-1.118;2023-02-15T04:43:44;101002.22;;;11.47
70668;BMP280;58242;51.250;-1.118;2023-02-15T04:46:09;101004.44;;;11.45
70668;BMP280;58242;51.250;-1.118;2023-02-15T04:48:34;101000.19;;;11.44
70668;BMP280;58242;51.250;-1.118;2023-02-15T04:51:04;100988.97;;;11.42
70668;BMP280;58242;51.250;-1.118;2023-02-15T04:53:29;100995.44;;;11.41
70668;BMP280;58242;51.250;-1.118;2023-02-15T04:55:55;100992.75;;;11.41
70668;BMP280;58242;51.250;-1.118;2023-02-15T04:58:20;100990.38;;;11.40
70668;BMP280;58242;51.250;-1.118;2023-02-15T05:00:45;100983.16;;;11.40
70668;BMP280;58242;51.250;-1.118;2023-02-15T05:03:10;100986.63;;;11.41
70668;BMP280;58242;51.250;-1.118;2023-02-15T05:05:35;100990.09;;;11.41
70668;BMP280;58242;51.250;-1.118;2023-02-15T05:08:01;100996.22;;;11.42
70668;BMP280;58242;51.250;-1.118;2023-02-15T05:10:26;100993.56;;;11.42
70668;BMP280;58242;51.250;-1.118;2023-02-15T05:12:51;100992.44;;;11.43
70668;BMP280;58242;51.250;-1.118;2023-02-15T05:15:16;100986.78;;;11.44
70668;BMP280;58242;51.250;-1.118;2023-02-15T05:17:42;100986.78;;;11.44
70668;BMP280;58242;51.250;-1.118;2023-02-15T05:20:07;100976.88;;;11.45
70668;BMP280;58242;51.250;-1.118;2023-02-15T05:22:32;100987.59;;;11.45
70668;BMP280;58242;51.250;-1.118;2023-02-15T05:24:57;100990.25;;;11.45
70668;BMP280;58242;51.250;-1.118;2023-02-15T05:27:41;100993.22;;;11.43
70668;BMP280;58242;51.250;-1.118;2023-02-15T05:30:25;100988.19;;;11.42
70668;BMP280;58242;51.250;-1.118;2023-02-15T05:32:50;100985.81;;;11.40
70668;BMP280;58242;51.250;-1.118;2023-02-15T05:35:16;100989.59;;;11.39
70668;BMP280;58242;51.250;-1.118;2023-02-15T05:37:41;100982.66;;;11.38
70668;BMP280;58242;51.250;-1.118;2023-02-15T05:40:07;100982.97;;;11.37
70668;BMP280;58242;51.250;-1.118;2023-02-15T05:42:32;100980.59;;;11.35
70668;BMP280;58242;51.250;-1.118;2023-02-15T05:44:58;100983.88;;;11.32
70668;BMP280;58242;51.250;-1.118;2023-02-15T05:47:23;100983.41;;;11.30
70668;BMP280;58242;51.250;-1.118;2023-02-15T05:49:48;100981.31;;;11.28
70668;BMP280;58242;51.250;-1.118;2023-02-15T05:52:13;100982.72;;;11.25
70668;BMP280;58242;51.250;-1.118;2023-02-15T05:54:38;100983.63;;;11.21
70668;BMP280;58242;51.250;-1.118;2023-02-15T05:57:04;100984.69;;;11.20
70668;BMP280;58242;51.250;-1.118;2023-02-15T05:59:29;100970.34;;;11.16
70668;BMP280;58242;51.250;-1.118;2023-02-15T06:01:54;100974.16;;;11.15
70668;BMP280;58242;51.250;-1.118;2023-02-15T06:04:19;100976.66;;;11.11
70668;BMP280;58242;51.250;-1.118;2023-02-15T06:06:45;100962.75;;;11.10
70668;BMP280;58242;51.250;-1.118;2023-02-15T06:09:11;100964.97;;;11.08
70668;BMP280;58242;51.250;-1.118;2023-02-15T06:11:37;100972.19;;;11.07
70668;BMP280;58242;51.250;-1.118;2023-02-15T06:14:02;100966.66;;;11.04
70668;BMP280;58242;51.250;-1.118;2023-02-15T06:16:27;100964.75;;;11.04
70668;BMP280;58242;51.250;-1.118;2023-02-15T06:18:53;100966.66;;;11.04
70668;BMP280;58242;51.250;-1.118;2023-02-15T06:21:18;100966.16;;;11.02
70668;BMP280;58242;51.250;-1.118;2023-02-15T06:23:43;100964.28;;;11.02
70668;BMP280;58242;51.250;-1.118;2023-02-15T06:26:08;100964.28;;;11.02
70668;BMP280;58242;51.250;-1.118;2023-02-15T06:28:33;100964.75;;;11.04
70668;BMP280;58242;51.250;-1.118;2023-02-15T06:30:59;100962.09;;;11.04
70668;BMP280;58242;51.250;-1.118;2023-02-15T06:33:24;100968.72;;;11.07
70668;BMP280;58242;51.250;-1.118;2023-02-15T06:35:50;100979.63;;;11.10
70668;BMP280;58242;51.250;-1.118;2023-02-15T06:38:15;100976.66;;;11.11
70668;BMP280;58242;51.250;-1.118;2023-02-15T06:40:40;100983.25;;;11.14
70668;BMP280;58242;51.250;-1.118;2023-02-15T06:43:05;100979.50;;;11.15
70668;BMP280;58242;51.250;-1.118;2023-02-15T06:45:30;100975.69;;;11.16
70668;BMP280;58242;51.250;-1.118;2023-02-15T06:47:56;100976.22;;;11.18
70668;BMP280;58242;51.250;-1.118;2023-02-15T06:50:21;100973.22;;;11.19
70668;BMP280;58242;51.250;-1.118;2023-02-15T06:52:46;100971.03;;;11.21
70668;BMP280;58242;51.250;-1.118;2023-02-15T06:55:11;100969.63;;;11.24
70668;BMP280;58242;51.250;-1.118;2023-02-15T06:57:37;100969.31;;;11.25
70668;BMP280;58242;51.250;-1.118;2023-02-15T07:00:02;100972.78;;;11.26
70668;BMP280;58242;51.250;-1.118;2023-02-15T07:02:29;100971.72;;;11.27
70668;BMP280;58242;51.250;-1.118;2023-02-15T07:04:54;100974.09;;;11.28
70668;BMP280;58242;51.250;-1.118;2023-02-15T07:07:20;100981.81;;;11.29
70668;BMP280;58242;51.250;-1.118;2023-02-15T07:09:45;100985.28;;;11.30
70668;BMP280;58242;51.250;-1.118;2023-02-15T07:12:10;100989.22;;;11.32
70668;BMP280;58242;51.250;-1.118;2023-02-15T07:14:54;101006.09;;;11.33
70668;BMP280;58242;51.250;-1.118;2023-02-15T07:17:19;101000.44;;;11.34
70668;BMP280;58242;51.250;-1.118;2023-02-15T07:19:45;101006.28;;;11.36
70668;BMP280;58242;51.250;-1.118;2023-02-15T07:22:10;101006.28;;;11.36
70668;BMP280;58242;51.250;-1.118;2023-02-15T07:24:35;100996.34;;;11.37
70668;BMP280;58242;51.250;-1.118;2023-02-15T07:27:00;100995.25;;;11.38
70668;BMP280;58242;51.250;-1.118;2023-02-15T07:29:26;100996.03;;;11.38
70668;BMP280;58242;51.250;-1.118;2023-02-15T07:31:51;100989.59;;;11.39
70668;BMP280;58242;51.250;-1.118;2023-02-15T07:34:16;100992.25;;;11.39
70668;BMP280;58242;51.250;-1.118;2023-02-15T07:36:41;100982.84;;;11.42
70668;BMP280;58242;51.250;-1.118;2023-02-15T07:39:08;100985.19;;;11.43
70668;BMP280;58242;51.250;-1.118;2023-02-15T07:41:34;100997.22;;;11.46
70668;BMP280;58242;51.250;-1.118;2023-02-15T07:43:59;101002.72;;;11.49
70668;BMP280;58242;51.250;-1.118;2023-02-15T07:46:24;101009.06;;;11.53
70668;BMP280;58242;51.250;-1.118;2023-02-15T07:48:49;101004.97;;;11.55
70668;BMP280;58242;51.250;-1.118;2023-02-15T07:51:15;101004.03;;;11.60
70668;BMP280;58242;51.250;-1.118;2023-02-15T07:53:40;101006.09;;;11.63
70668;BMP280;58242;51.250;-1.118;2023-02-15T07:56:08;101012.44;;;11.66
70668;BMP280;58242;51.250;-1.118;2023-02-15T07:58:34;101005.06;;;11.72
70668;BMP280;58242;51.250;-1.118;2023-02-15T08:03:48;101000.84;;;11.79
70668;BMP280;58242;51.250;-1.118;2023-02-15T08:06:13;100987.28;;;11.84
70668;BMP280;58242;51.250;-1.118;2023-02-15T08:08:39;100983.38;;;11.90
70668;BMP280;58242;51.250;-1.118;2023-02-15T08:11:05;100976.47;;;11.97
70668;BMP280;58242;51.250;-1.118;2023-02-15T08:13:50;100967.84;;;12.08
70668;BMP280;58242;51.250;-1.118;2023-02-15T08:16:21;100971.50;;;12.20
70668;BMP280;58242;51.250;-1.118;2023-02-15T08:18:47;100972.78;;;12.31
70668;BMP280;58242;51.250;-1.118;2023-02-15T08:21:12;100975.94;;;12.41
70668;BMP280;58242;51.250;-1.118;2023-02-15T08:23:38;100963.50;;;12.53
70668;BMP280;58242;51.250;-1.118;2023-02-15T08:26:03;100969.22;;;12.68
70668;BMP280;58242;51.250;-1.118;2023-02-15T08:28:29;100980.13;;;12.88
70668;BMP280;58242;51.250;-1.118;2023-02-15T08:30:54;100983.41;;;13.10
70668;BMP280;58242;51.250;-1.118;2023-02-15T08:33:19;100982.56;;;13.34
70668;BMP280;58242;51.250;-1.118;2023-02-15T08:35:45;100977.59;;;13.61
70668;BMP280;58242;51.250;-1.118;2023-02-15T08:38:10;100979.09;;;13.87
70668;BMP280;58242;51.250;-1.118;2023-02-15T08:40:35;100973.28;;;14.13
70668;BMP280;58242;51.250;-1.118;2023-02-15T08:43:03;100973.44;;;14.37
70668;BMP280;58242;51.250;-1.118;2023-02-15T08:45:28;100966.63;;;14.59
70668;BMP280;58242;51.250;-1.118;2023-02-15T08:47:53;100978.94;;;14.88
70668;BMP280;58242;51.250;-1.118;2023-02-15T08:50:18;100973.69;;;15.23
70668;BMP280;58242;51.250;-1.118;2023-02-15T08:52:43;100973.25;;;15.64
70668;BMP280;58242;51.250;-1.118;2023-02-15T08:55:09;100978.59;;;16.08
70668;BMP280;58242;51.250;-1.118;2023-02-15T08:57:34;100970.72;;;16.38
70668;BMP280;58242;51.250;-1.118;2023-02-15T08:59:59;100967.72;;;16.66
70668;BMP280;58242;51.250;-1.118;2023-02-15T09:02:24;100963.53;;;16.92
70668;BMP280;58242;51.250;-1.118;2023-02-15T09:04:49;100955.63;;;17.25
70668;BMP280;58242;51.250;-1.118;2023-02-15T09:07:16;100957.41;;;17.63
70668;BMP280;58242;51.250;-1.118;2023-02-15T09:09:43;100954.03;;;17.96
70668;BMP280;58242;51.250;-1.118;2023-02-15T09:12:10;100967.94;;;18.28
70668;BMP280;58242;51.250;-1.118;2023-02-15T09:14:35;100962.03;;;18.56
70668;BMP280;58242;51.250;-1.118;2023-02-15T09:17:00;100954.19;;;18.85
70668;BMP280;58242;51.250;-1.118;2023-02-15T09:19:26;100957.25;;;19.20
70668;BMP280;58242;51.250;-1.118;2023-02-15T09:21:51;100956.00;;;19.55
70668;BMP280;58242;51.250;-1.118;2023-02-15T09:24:17;100966.38;;;19.93
70668;BMP280;58242;51.250;-1.118;2023-02-15T09:26:43;100970.81;;;20.26
70668;BMP280;58242;51.250;-1.118;2023-02-15T09:29:09;100971.34;;;20.60
70668;BMP280;58242;51.250;-1.118;2023-02-15T09:31:38;100986.16;;;20.91
70668;BMP280;58242;51.250;-1.118;2023-02-15T09:34:03;100993.00;;;21.11
70668;BMP280;58242;51.250;-1.118;2023-02-15T09:36:30;100984.25;;;21.24
70668;BMP280;58242;51.250;-1.118;2023-02-15T09:38:57;100989.00;;;21.34
70668;BMP280;58242;51.250;-1.118;2023-02-15T09:41:48;100982.34;;;21.28
70668;BMP280;58242;51.250;-1.118;2023-02-15T09:44:24;100981.38;;;21.10
70668;BMP280;58242;51.250;-1.118;2023-02-15T09:56:53;100979.06;;;20.84
70668;BMP280;58242;51.250;-1.118;2023-02-15T09:59:29;100976.91;;;20.99
70668;BMP280;58242;51.250;-1.118;2023-02-15T10:09:44;100977.03;;;22.16
70668;BMP280;58242;51.250;-1.118;2023-02-15T10:27:45;100969.88;;;25.24
70668;BMP280;58242;51.250;-1.118;2023-02-15T10:30:24;100978.69;;;25.55
70668;BMP280;58242;51.250;-1.118;2023-02-15T10:32:59;100953.38;;;25.94
70668;BMP280;58242;51.250;-1.118;2023-02-15T10:35:42;100956.13;;;26.37
70668;BMP280;58242;51.250;-1.118;2023-02-15T10:45:52;100944.47;;;27.85
70668;BMP280;58242;51.250;-1.118;2023-02-15T10:50:56;100967.19;;;28.37
70668;BMP280;58242;51.250;-1.118;2023-02-15T11:01:27;100953.44;;;28.98
70668;BMP280;58242;51.250;-1.118;2023-02-15T11:06:19;100961.38;;;29.49
70668;BMP280;58242;51.250;-1.118;2023-02-15T11:08:50;100965.28;;;29.67
70668;BMP280;58242;51.250;-1.118;2023-02-15T11:11:21;100957.22;;;29.76
70668;BMP280;58242;51.250;-1.118;2023-02-15T11:13:48;100963.97;;;29.90
70668;BMP280;58242;51.250;-1.118;2023-02-15T11:16:20;100960.25;;;29.97
70668;BMP280;58242;51.250;-1.118;2023-02-15T11:18:51;100939.84;;;30.10
70668;BMP280;58242;51.250;-1.118;2023-02-15T11:21:22;100949.16;;;30.31
70668;BMP280;58242;51.250;-1.118;2023-02-15T11:23:49;100948.41;;;30.58
70668;BMP280;58242;51.250;-1.118;2023-02-15T11:26:27;100951.81;;;30.78
70668;BMP280;58242;51.250;-1.118;2023-02-15T11:28:58;100945.28;;;31.00
70668;BMP280;58242;51.250;-1.118;2023-02-15T11:31:25;100947.44;;;31.20
70668;BMP280;58242;51.250;-1.118;2023-02-15T11:33:55;100948.69;;;31.31
70668;BMP280;58242;51.250;-1.118;2023-02-15T11:36:24;100951.09;;;31.29
70668;BMP280;58242;51.250;-1.118;2023-02-15T11:38:52;100947.31;;;31.11
70668;BMP280;58242;51.250;-1.118;2023-02-15T11:41:21;100947.50;;;30.77
70668;BMP280;58242;51.250;-1.118;2023-02-15T11:46:17;100956.13;;;29.89
70668;BMP280;58242;51.250;-1.118;2023-02-15T11:48:43;100948.03;;;29.48
70668;BMP280;58242;51.250;-1.118;2023-02-15T11:51:09;100943.69;;;29.12
70668;BMP280;58242;51.250;-1.118;2023-02-15T11:53:36;100944.03;;;28.76
70668;BMP280;58242;51.250;-1.118;2023-02-15T11:56:02;100944.13;;;28.50
70668;BMP280;58242;51.250;-1.118;2023-02-15T11:58:43;100944.13;;;28.06
70668;BMP280;58242;51.250;-1.118;2023-02-15T12:01:24;100944.56;;;27.53
70668;BMP280;58242;51.250;-1.118;2023-02-15T12:03:53;100962.06;;;27.07
70668;BMP280;58242;51.250;-1.118;2023-02-15T12:06:24;100954.28;;;26.99
70668;BMP280;58242;51.250;-1.118;2023-02-15T12:08:59;100943.56;;;27.11
70668;BMP280;58242;51.250;-1.118;2023-02-15T12:11:35;100941.97;;;27.43
70668;BMP280;58242;51.250;-1.118;2023-02-15T12:14:02;100930.25;;;27.90
70668;BMP280;58242;51.250;-1.118;2023-02-15T12:16:28;100934.88;;;28.41
70668;BMP280;58242;51.250;-1.118;2023-02-15T12:18:58;100938.13;;;28.97
70668;BMP280;58242;51.250;-1.118;2023-02-15T12:23:50;100920.44;;;29.98
70668;BMP280;58242;51.250;-1.118;2023-02-15T12:26:26;100919.28;;;30.42
70668;BMP280;58242;51.250;-1.118;2023-02-15T12:28:52;100911.75;;;30.58
70668;BMP280;58242;51.250;-1.118;2023-02-15T12:31:23;100911.91;;;30.39
70668;BMP280;58242;51.250;-1.118;2023-02-15T12:33:50;100910.19;;;29.98
70668;BMP280;58242;51.250;-1.118;2023-02-15T12:38:42;100917.28;;;28.96
70668;BMP280;58242;51.250;-1.118;2023-02-15T12:41:22;100931.75;;;28.39
70668;BMP280;58242;51.250;-1.118;2023-02-15T12:43:47;100920.09;;;27.87
70668;BMP280;58242;51.250;-1.118;2023-02-15T12:46:27;100921.69;;;27.33
70668;BMP280;58242;51.250;-1.118;2023-02-15T12:49:14;100921.13;;;26.87
70668;BMP280;58242;51.250;-1.118;2023-02-15T12:54:16;100920.41;;;26.08
70668;BMP280;58242;51.250;-1.118;2023-02-15T12:56:41;100919.09;;;25.73
70668;BMP280;58242;51.250;-1.118;2023-02-15T12:59:06;100915.78;;;25.41
70668;BMP280;58242;51.250;-1.118;2023-02-15T13:01:32;100908.09;;;25.16
70668;BMP280;58242;51.250;-1.118;2023-02-15T13:03:58;100896.09;;;24.93
70668;BMP280;58242;51.250;-1.118;2023-02-15T13:06:24;100896.56;;;24.75
70668;BMP280;58242;51.250;-1.118;2023-02-15T13:08:51;100897.81;;;24.60
70668;BMP280;58242;51.250;-1.118;2023-02-15T13:11:21;100898.19;;;24.52
70668;BMP280;58242;51.250;-1.118;2023-02-15T13:13:51;100890.41;;;24.40
70668;BMP280;58242;51.250;-1.118;2023-02-15T13:16:16;100893.19;;;24.27
70668;BMP280;58242;51.250;-1.118;2023-02-15T13:18:45;100895.53;;;24.18
70668;BMP280;58242;51.250;-1.118;2023-02-15T13:23:39;100882.25;;;24.10
70668;BMP280;58242;51.250;-1.118;2023-02-15T13:26:09;100881.88;;;24.18
70668;BMP280;58242;51.250;-1.118;2023-02-15T13:28:39;100882.59;;;24.46
70668;BMP280;58242;51.250;-1.118;2023-02-15T13:31:13;100875.50;;;24.69
70668;BMP280;58242;51.250;-1.118;2023-02-15T13:33:39;100868.00;;;24.86
70668;BMP280;58242;51.250;-1.118;2023-02-15T13:39:19;100858.19;;;25.55
70668;BMP280;58242;51.250;-1.118;2023-02-15T13:49:09;100840.63;;;27.96
70668;BMP280;58242;51.250;-1.118;2023-02-15T14:02:30;100839.78;;;29.63
70668;BMP280;58242;51.250;-1.118;2023-02-15T14:15:08;100833.34;;;30.28
70668;BMP280;58242;51.250;-1.118;2023-02-15T14:22:49;100828.34;;;29.95
70668;BMP280;58242;51.250;-1.118;2023-02-15T14:30:26;100845.56;;;29.99
70668;BMP280;58242;51.250;-1.118;2023-02-15T14:32:54;100833.88;;;29.95
70668;BMP280;58242;51.250;-1.118;2023-02-15T14:35:21;100829.91;;;29.96
70668;BMP280;58242;51.250;-1.118;2023-02-15T14:45:54;100829.63;;;30.06
70668;BMP280;58242;51.250;-1.118;2023-02-15T14:50:45;100818.44;;;29.82
70668;BMP280;58242;51.250;-1.118;2023-02-15T14:55:39;100821.63;;;29.65
70668;BMP280;58242;51.250;-1.118;2023-02-15T14:58:09;100824.63;;;29.55
70668;BMP280;58242;51.250;-1.118;2023-02-15T15:00:39;100817.00;;;29.47
70668;BMP280;58242;51.250;-1.118;2023-02-15T15:03:37;100817.41;;;29.30
70668;BMP280;58242;51.250;-1.118;2023-02-15T15:05:56;100827.25;;;29.12
70668;BMP280;58242;51.250;-1.118;2023-02-15T15:10:53;100844.22;;;28.91
70668;BMP280;58242;51.250;-1.118;2023-02-15T15:15:55;100829.00;;;28.30
70668;BMP280;58242;51.250;-1.118;2023-02-15T15:18:42;100826.97;;;27.93
70668;BMP280;58242;51.250;-1.118;2023-02-15T15:21:08;100817.41;;;27.52
70668;BMP280;58242;51.250;-1.118;2023-02-15T15:23:38;100806.19;;;27.18
70668;BMP280;58242;51.250;-1.118;2023-02-15T15:31:24;100820.59;;;26.02
70668;BMP280;58242;51.250;-1.118;2023-02-15T15:50:00;100829.50;;;24.36
70668;BMP280;58242;51.250;-1.118;2023-02-15T15:52:26;100828.00;;;24.22
70668;BMP280;58242;51.250;-1.118;2023-02-15T15:54:56;100821.78;;;24.11
70668;BMP280;58242;51.250;-1.118;2023-02-15T15:57:27;100830.75;;;24.01
70668;BMP280;58242;51.250;-1.118;2023-02-15T15:59:53;100822.56;;;23.88
70668;BMP280;58242;51.250;-1.118;2023-02-15T16:02:19;100821.03;;;23.73
70668;BMP280;58242;51.250;-1.118;2023-02-15T16:04:44;100816.34;;;23.57
70668;BMP280;58242;51.250;-1.118;2023-02-15T16:10:05;100806.97;;;23.17
70668;BMP280;58242;51.250;-1.118;2023-02-15T16:12:29;100806.91;;;22.97
70668;BMP280;58242;51.250;-1.118;2023-02-15T16:14:55;100802.59;;;22.82
70668;BMP280;58242;51.250;-1.118;2023-02-15T16:17:25;100800.63;;;22.69
70668;BMP280;58242;51.250;-1.118;2023-02-15T16:19:51;100800.97;;;22.54
70668;BMP280;58242;51.250;-1.118;2023-02-15T16:22:24;100809.06;;;22.40
70668;BMP280;58242;51.250;-1.118;2023-02-15T16:27:36;100795.25;;;22.06
70668;BMP280;58242;51.250;-1.118;2023-02-15T16:32:46;100806.66;;;21.69
70668;BMP280;58242;51.250;-1.118;2023-02-15T16:35:18;100810.81;;;21.53
70668;BMP280;58242;51.250;-1.118;2023-02-15T16:37:44;100804.03;;;21.34
70668;BMP280;58242;51.250;-1.118;2023-02-15T16:43:24;100810.28;;;20.95
70668;BMP280;58242;51.250;-1.118;2023-02-15T16:45:41;100799.97;;;20.75
70668;BMP280;58242;51.250;-1.118;2023-02-15T16:48:10;100805.97;;;20.59
70668;BMP280;58242;51.250;-1.118;2023-02-15T16:50:37;100797.28;;;20.47
70668;BMP280;58242;51.250;-1.118;2023-02-15T16:53:04;100806.88;;;20.38
70668;BMP280;58242;51.250;-1.118;2023-02-15T16:55:40;100818.00;;;20.29
70668;BMP280;58242;51.250;-1.118;2023-02-15T16:58:06;100809.28;;;20.17
70668;BMP280;58242;51.250;-1.118;2023-02-15T17:00:36;100806.03;;;20.05
70668;BMP280;58242;51.250;-1.118;2023-02-15T17:03:03;100805.13;;;19.98